クェゼリン環礁 の空港の天気 - METARとTAF

バックホルツ陸軍飛行場 ( PKWA / KWA ) - マーシャル諸島 クェゼリン環礁
飛行場実況気象(Metar)
観測時間05/26 12:00 MHT (05/26 00:00 UTC)
風向・風速東南東 5m/s
視程10km以上
天気現象
全天の4割程度の雲 雲底高度 700m
気温30.9℃
湿度72%
気圧1015hPa
METARPKWA 260000Z AUTO 11010KT 10SM SCT023 31/25 A2997 RMK AO2 T03090252
過去の天気等 Google飛行場航空写真 Wunderground天気予報

過去48時間のMETAR

飛行場予報(TAF)
発表時間: 5/26 11:20 MHT (5/25 23:20 UTC)
予報対象時間: 26日12時 MHT ~ 27日12時 MHT
風向・風速東南東 6m/s
視程10km以上
天気現象周辺でしゅう雨
全天の4割程度の雲 雲底高度 610m
全天の4割程度の雲 雲底高度 1520m
27日0時 MHT から
風向・風速東北東 6m/s
視程10km以上
天気現象周辺でしゅう雨
全天の4割程度の雲 雲底高度 610m
全天の4割程度の雲 雲底高度 1520m
PKWA 252320Z 2600/2624 12011KT P6SM VCSH SCT020 SCT050
FM261200 07011KT P6SM VCSH SCT020 SCT050